sensor_id;sensor_type;location;lat;lon;timestamp;P1;durP1;ratioP1;P2;durP2;ratioP2
20697;SDS011;10508;50.956;4.640;2022-12-18T00:01:20;39.88;;;14.70;;
20697;SDS011;10508;50.956;4.640;2022-12-18T00:03:47;50.67;;;15.07;;
20697;SDS011;10508;50.956;4.640;2022-12-18T00:06:13;48.58;;;15.75;;
20697;SDS011;10508;50.956;4.640;2022-12-18T00:08:40;45.63;;;15.75;;
20697;SDS011;10508;50.956;4.640;2022-12-18T00:11:08;41.50;;;13.27;;
20697;SDS011;10508;50.956;4.640;2022-12-18T00:13:36;45.35;;;14.07;;
20697;SDS011;10508;50.956;4.640;2022-12-18T00:16:02;61.38;;;17.65;;
20697;SDS011;10508;50.956;4.640;2022-12-18T00:18:29;46.28;;;14.35;;
20697;SDS011;10508;50.956;4.640;2022-12-18T00:20:57;41.70;;;12.48;;
20697;SDS011;10508;50.956;4.640;2022-12-18T00:23:28;38.13;;;13.75;;
20697;SDS011;10508;50.956;4.640;2022-12-18T00:25:54;59.83;;;16.05;;
20697;SDS011;10508;50.956;4.640;2022-12-18T00:28:28;40.40;;;14.98;;
20697;SDS011;10508;50.956;4.640;2022-12-18T00:31:08;43.30;;;14.52;;
20697;SDS011;10508;50.956;4.640;2022-12-18T00:33:35;45.45;;;13.68;;
20697;SDS011;10508;50.956;4.640;2022-12-18T00:38:27;43.97;;;14.43;;
20697;SDS011;10508;50.956;4.640;2022-12-18T00:40:56;35.97;;;12.02;;
20697;SDS011;10508;50.956;4.640;2022-12-18T00:43:22;40.45;;;13.18;;
20697;SDS011;10508;50.956;4.640;2022-12-18T00:45:48;46.95;;;13.10;;
20697;SDS011;10508;50.956;4.640;2022-12-18T00:48:13;49.58;;;14.57;;
20697;SDS011;10508;50.956;4.640;2022-12-18T00:50:39;39.45;;;14.02;;
20697;SDS011;10508;50.956;4.640;2022-12-18T00:53:04;42.28;;;13.93;;
20697;SDS011;10508;50.956;4.640;2022-12-18T00:55:30;42.30;;;14.25;;
20697;SDS011;10508;50.956;4.640;2022-12-18T00:57:56;39.75;;;12.45;;
20697;SDS011;10508;50.956;4.640;2022-12-18T01:00:21;35.63;;;11.73;;
20697;SDS011;10508;50.956;4.640;2022-12-18T01:02:47;40.08;;;13.43;;
20697;SDS011;10508;50.956;4.640;2022-12-18T01:05:13;34.15;;;11.82;;
20697;SDS011;10508;50.956;4.640;2022-12-18T01:07:39;34.85;;;12.18;;
20697;SDS011;10508;50.956;4.640;2022-12-18T01:10:24;31.73;;;12.18;;
20697;SDS011;10508;50.956;4.640;2022-12-18T01:12:49;28.25;;;10.63;;
20697;SDS011;10508;50.956;4.640;2022-12-18T01:15:16;37.63;;;12.63;;
20697;SDS011;10508;50.956;4.640;2022-12-18T01:17:43;35.33;;;11.88;;
20697;SDS011;10508;50.956;4.640;2022-12-18T01:20:09;31.40;;;10.50;;
20697;SDS011;10508;50.956;4.640;2022-12-18T01:22:36;35.38;;;12.07;;
20697;SDS011;10508;50.956;4.640;2022-12-18T01:25:03;26.90;;;10.82;;
20697;SDS011;10508;50.956;4.640;2022-12-18T01:27:29;28.63;;;11.60;;
20697;SDS011;10508;50.956;4.640;2022-12-18T01:29:55;35.38;;;12.80;;
20697;SDS011;10508;50.956;4.640;2022-12-18T01:32:20;27.13;;;11.35;;
20697;SDS011;10508;50.956;4.640;2022-12-18T01:34:47;32.78;;;10.50;;
20697;SDS011;10508;50.956;4.640;2022-12-18T01:37:12;33.08;;;11.45;;
20697;SDS011;10508;50.956;4.640;2022-12-18T01:39:38;32.75;;;10.05;;
20697;SDS011;10508;50.956;4.640;2022-12-18T01:42:05;34.78;;;11.25;;
20697;SDS011;10508;50.956;4.640;2022-12-18T01:50:13;32.85;;;11.63;;
20697;SDS011;10508;50.956;4.640;2022-12-18T01:52:46;33.17;;;11.00;;
20697;SDS011;10508;50.956;4.640;2022-12-18T01:55:18;28.50;;;9.30;;
20697;SDS011;10508;50.956;4.640;2022-12-18T01:57:47;28.90;;;10.15;;
20697;SDS011;10508;50.956;4.640;2022-12-18T02:00:16;30.58;;;9.38;;
20697;SDS011;10508;50.956;4.640;2022-12-18T02:02:44;29.35;;;10.20;;
20697;SDS011;10508;50.956;4.640;2022-12-18T02:05:11;29.55;;;11.40;;
20697;SDS011;10508;50.956;4.640;2022-12-18T02:10:28;33.55;;;9.77;;
20697;SDS011;10508;50.956;4.640;2022-12-18T02:13:27;29.77;;;9.73;;
20697;SDS011;10508;50.956;4.640;2022-12-18T02:18:30;31.17;;;11.07;;
20697;SDS011;10508;50.956;4.640;2022-12-18T02:26:39;20.92;;;8.63;;
20697;SDS011;10508;50.956;4.640;2022-12-18T02:29:16;26.33;;;9.98;;
20697;SDS011;10508;50.956;4.640;2022-12-18T02:32:08;29.40;;;9.30;;
20697;SDS011;10508;50.956;4.640;2022-12-18T02:34:35;50.80;;;9.83;;
20697;SDS011;10508;50.956;4.640;2022-12-18T02:37:03;29.52;;;10.52;;
20697;SDS011;10508;50.956;4.640;2022-12-18T02:39:32;25.42;;;9.50;;
20697;SDS011;10508;50.956;4.640;2022-12-18T02:41:59;28.02;;;9.55;;
20697;SDS011;10508;50.956;4.640;2022-12-18T02:44:27;28.30;;;10.32;;
20697;SDS011;10508;50.956;4.640;2022-12-18T02:46:53;28.50;;;10.02;;
20697;SDS011;10508;50.956;4.640;2022-12-18T02:49:26;30.60;;;10.52;;
20697;SDS011;10508;50.956;4.640;2022-12-18T03:00:23;28.48;;;9.05;;
20697;SDS011;10508;50.956;4.640;2022-12-18T03:03:00;21.55;;;8.13;;
20697;SDS011;10508;50.956;4.640;2022-12-18T03:05:36;23.67;;;7.20;;
20697;SDS011;10508;50.956;4.640;2022-12-18T03:08:08;29.92;;;9.70;;
20697;SDS011;10508;50.956;4.640;2022-12-18T03:10:45;27.27;;;10.10;;
20697;SDS011;10508;50.956;4.640;2022-12-18T03:13:20;28.90;;;9.70;;
20697;SDS011;10508;50.956;4.640;2022-12-18T03:15:59;36.17;;;9.55;;
20697;SDS011;10508;50.956;4.640;2022-12-18T03:19:08;27.70;;;9.02;;
20697;SDS011;10508;50.956;4.640;2022-12-18T03:21:19;23.35;;;7.53;;
20697;SDS011;10508;50.956;4.640;2022-12-18T03:23:49;27.77;;;9.82;;
20697;SDS011;10508;50.956;4.640;2022-12-18T03:26:17;31.48;;;9.27;;
20697;SDS011;10508;50.956;4.640;2022-12-18T03:28:51;24.33;;;9.10;;
20697;SDS011;10508;50.956;4.640;2022-12-18T03:31:23;28.05;;;9.98;;
20697;SDS011;10508;50.956;4.640;2022-12-18T03:33:54;35.33;;;11.35;;
20697;SDS011;10508;50.956;4.640;2022-12-18T03:36:24;37.72;;;11.35;;
20697;SDS011;10508;50.956;4.640;2022-12-18T03:38:50;34.70;;;9.20;;
20697;SDS011;10508;50.956;4.640;2022-12-18T03:41:21;29.08;;;9.30;;
20697;SDS011;10508;50.956;4.640;2022-12-18T03:49:20;31.23;;;9.65;;
20697;SDS011;10508;50.956;4.640;2022-12-18T03:52:05;22.92;;;8.25;;
20697;SDS011;10508;50.956;4.640;2022-12-18T03:54:36;27.15;;;9.77;;
20697;SDS011;10508;50.956;4.640;2022-12-18T03:57:25;25.30;;;8.55;;
20697;SDS011;10508;50.956;4.640;2022-12-18T03:59:54;26.30;;;8.02;;
20697;SDS011;10508;50.956;4.640;2022-12-18T04:02:22;25.33;;;9.57;;
20697;SDS011;10508;50.956;4.640;2022-12-18T04:04:50;25.63;;;8.18;;
20697;SDS011;10508;50.956;4.640;2022-12-18T04:07:18;30.40;;;10.47;;
20697;SDS011;10508;50.956;4.640;2022-12-18T04:09:46;26.90;;;8.47;;
20697;SDS011;10508;50.956;4.640;2022-12-18T04:12:14;32.87;;;9.13;;
20697;SDS011;10508;50.956;4.640;2022-12-18T04:14:40;28.97;;;9.07;;
20697;SDS011;10508;50.956;4.640;2022-12-18T04:17:05;25.50;;;9.30;;
20697;SDS011;10508;50.956;4.640;2022-12-18T04:19:31;31.50;;;10.38;;
20697;SDS011;10508;50.956;4.640;2022-12-18T04:21:56;23.07;;;8.13;;
20697;SDS011;10508;50.956;4.640;2022-12-18T04:24:22;30.55;;;9.57;;
20697;SDS011;10508;50.956;4.640;2022-12-18T04:26:48;24.80;;;8.88;;
20697;SDS011;10508;50.956;4.640;2022-12-18T04:29:13;39.73;;;8.57;;
20697;SDS011;10508;50.956;4.640;2022-12-18T04:31:39;24.80;;;9.70;;
20697;SDS011;10508;50.956;4.640;2022-12-18T04:34:04;22.70;;;8.03;;
20697;SDS011;10508;50.956;4.640;2022-12-18T04:36:30;17.37;;;8.13;;
20697;SDS011;10508;50.956;4.640;2022-12-18T04:38:56;29.00;;;8.87;;
20697;SDS011;10508;50.956;4.640;2022-12-18T04:41:21;24.65;;;8.75;;
20697;SDS011;10508;50.956;4.640;2022-12-18T04:43:47;22.60;;;8.40;;
20697;SDS011;10508;50.956;4.640;2022-12-18T04:46:12;25.92;;;9.25;;
20697;SDS011;10508;50.956;4.640;2022-12-18T04:48:38;28.55;;;8.77;;
20697;SDS011;10508;50.956;4.640;2022-12-18T04:51:04;26.87;;;8.50;;
20697;SDS011;10508;50.956;4.640;2022-12-18T04:53:31;20.40;;;7.45;;
20697;SDS011;10508;50.956;4.640;2022-12-18T04:56:04;27.97;;;8.53;;
20697;SDS011;10508;50.956;4.640;2022-12-18T04:58:34;29.53;;;8.70;;
20697;SDS011;10508;50.956;4.640;2022-12-18T05:01:01;26.53;;;8.93;;
20697;SDS011;10508;50.956;4.640;2022-12-18T05:03:26;24.70;;;8.77;;
20697;SDS011;10508;50.956;4.640;2022-12-18T05:05:52;21.88;;;9.00;;
20697;SDS011;10508;50.956;4.640;2022-12-18T05:08:18;25.13;;;9.35;;
20697;SDS011;10508;50.956;4.640;2022-12-18T05:10:43;26.55;;;9.10;;
20697;SDS011;10508;50.956;4.640;2022-12-18T05:13:09;29.00;;;9.67;;
20697;SDS011;10508;50.956;4.640;2022-12-18T05:15:35;29.15;;;9.52;;
20697;SDS011;10508;50.956;4.640;2022-12-18T05:18:02;31.87;;;9.17;;
20697;SDS011;10508;50.956;4.640;2022-12-18T05:20:28;16.95;;;7.47;;
20697;SDS011;10508;50.956;4.640;2022-12-18T05:22:54;23.67;;;8.70;;
20697;SDS011;10508;50.956;4.640;2022-12-18T05:25:20;25.03;;;9.30;;
20697;SDS011;10508;50.956;4.640;2022-12-18T05:27:47;34.17;;;8.60;;
20697;SDS011;10508;50.956;4.640;2022-12-18T05:30:13;26.47;;;9.63;;
20697;SDS011;10508;50.956;4.640;2022-12-18T05:32:39;23.10;;;9.67;;
20697;SDS011;10508;50.956;4.640;2022-12-18T05:35:06;23.30;;;9.43;;
20697;SDS011;10508;50.956;4.640;2022-12-18T05:37:32;28.17;;;8.67;;
20697;SDS011;10508;50.956;4.640;2022-12-18T05:39:58;31.80;;;9.37;;
20697;SDS011;10508;50.956;4.640;2022-12-18T05:42:24;29.07;;;9.87;;
20697;SDS011;10508;50.956;4.640;2022-12-18T05:44:49;26.07;;;8.77;;
20697;SDS011;10508;50.956;4.640;2022-12-18T05:47:15;31.50;;;11.43;;
20697;SDS011;10508;50.956;4.640;2022-12-18T05:49:41;27.53;;;8.83;;
20697;SDS011;10508;50.956;4.640;2022-12-18T05:52:06;34.03;;;10.37;;
20697;SDS011;10508;50.956;4.640;2022-12-18T05:54:32;33.67;;;11.17;;
20697;SDS011;10508;50.956;4.640;2022-12-18T05:56:58;27.17;;;11.37;;
20697;SDS011;10508;50.956;4.640;2022-12-18T05:59:23;42.90;;;11.70;;
20697;SDS011;10508;50.956;4.640;2022-12-18T06:01:49;51.40;;;16.33;;
20697;SDS011;10508;50.956;4.640;2022-12-18T06:04:15;49.53;;;16.23;;
20697;SDS011;10508;50.956;4.640;2022-12-18T06:06:40;75.50;;;16.97;;
20697;SDS011;10508;50.956;4.640;2022-12-18T06:09:06;64.23;;;16.13;;
20697;SDS011;10508;50.956;4.640;2022-12-18T06:11:34;55.40;;;15.03;;
20697;SDS011;10508;50.956;4.640;2022-12-18T06:14:01;48.43;;;17.93;;
20697;SDS011;10508;50.956;4.640;2022-12-18T06:16:29;54.73;;;16.47;;
20697;SDS011;10508;50.956;4.640;2022-12-18T06:18:58;40.87;;;13.40;;
20697;SDS011;10508;50.956;4.640;2022-12-18T06:21:26;58.13;;;16.13;;
20697;SDS011;10508;50.956;4.640;2022-12-18T06:23:52;49.40;;;15.80;;
20697;SDS011;10508;50.956;4.640;2022-12-18T06:26:17;52.93;;;15.03;;
20697;SDS011;10508;50.956;4.640;2022-12-18T06:28:43;50.73;;;16.70;;
20697;SDS011;10508;50.956;4.640;2022-12-18T06:31:09;41.27;;;13.60;;
20697;SDS011;10508;50.956;4.640;2022-12-18T06:33:36;39.33;;;13.73;;
20697;SDS011;10508;50.956;4.640;2022-12-18T06:36:06;39.08;;;13.43;;
20697;SDS011;10508;50.956;4.640;2022-12-18T06:38:34;49.03;;;11.83;;
20697;SDS011;10508;50.956;4.640;2022-12-18T06:41:20;29.53;;;10.50;;
20697;SDS011;10508;50.956;4.640;2022-12-18T06:43:46;40.30;;;11.87;;
20697;SDS011;10508;50.956;4.640;2022-12-18T06:46:12;34.50;;;12.63;;
20697;SDS011;10508;50.956;4.640;2022-12-18T06:48:38;34.03;;;11.33;;
20697;SDS011;10508;50.956;4.640;2022-12-18T06:51:03;36.53;;;12.03;;
20697;SDS011;10508;50.956;4.640;2022-12-18T06:53:29;36.90;;;10.70;;
20697;SDS011;10508;50.956;4.640;2022-12-18T06:56:02;30.03;;;9.17;;
20697;SDS011;10508;50.956;4.640;2022-12-18T06:58:30;46.20;;;11.03;;
20697;SDS011;10508;50.956;4.640;2022-12-18T07:01:00;31.77;;;10.57;;
20697;SDS011;10508;50.956;4.640;2022-12-18T07:03:26;25.30;;;9.57;;
20697;SDS011;10508;50.956;4.640;2022-12-18T07:05:52;35.92;;;10.35;;
20697;SDS011;10508;50.956;4.640;2022-12-18T07:08:18;26.45;;;9.07;;
20697;SDS011;10508;50.956;4.640;2022-12-18T07:10:43;35.70;;;9.50;;
20697;SDS011;10508;50.956;4.640;2022-12-18T07:13:09;21.13;;;6.93;;
20697;SDS011;10508;50.956;4.640;2022-12-18T07:15:35;24.23;;;8.87;;
20697;SDS011;10508;50.956;4.640;2022-12-18T07:18:00;25.90;;;9.93;;
20697;SDS011;10508;50.956;4.640;2022-12-18T07:20:26;23.13;;;7.87;;
20697;SDS011;10508;50.956;4.640;2022-12-18T07:22:51;27.43;;;9.43;;
20697;SDS011;10508;50.956;4.640;2022-12-18T07:25:17;33.50;;;10.23;;
20697;SDS011;10508;50.956;4.640;2022-12-18T07:27:42;29.03;;;9.30;;
20697;SDS011;10508;50.956;4.640;2022-12-18T07:30:08;26.70;;;8.48;;
20697;SDS011;10508;50.956;4.640;2022-12-18T07:32:34;28.90;;;9.27;;
20697;SDS011;10508;50.956;4.640;2022-12-18T07:35:00;18.90;;;8.50;;
20697;SDS011;10508;50.956;4.640;2022-12-18T07:37:26;21.33;;;7.73;;
20697;SDS011;10508;50.956;4.640;2022-12-18T07:39:51;23.43;;;8.43;;
20697;SDS011;10508;50.956;4.640;2022-12-18T07:42:32;23.97;;;7.97;;
20697;SDS011;10508;50.956;4.640;2022-12-18T07:44:58;23.67;;;8.53;;
20697;SDS011;10508;50.956;4.640;2022-12-18T07:47:25;28.60;;;8.47;;
20697;SDS011;10508;50.956;4.640;2022-12-18T07:49:50;30.30;;;9.05;;
20697;SDS011;10508;50.956;4.640;2022-12-18T07:52:16;22.60;;;7.57;;
20697;SDS011;10508;50.956;4.640;2022-12-18T07:54:42;23.03;;;8.17;;
20697;SDS011;10508;50.956;4.640;2022-12-18T07:57:08;25.40;;;9.37;;
20697;SDS011;10508;50.956;4.640;2022-12-18T07:59:34;25.92;;;8.45;;
20697;SDS011;10508;50.956;4.640;2022-12-18T08:02:00;30.48;;;10.23;;
20697;SDS011;10508;50.956;4.640;2022-12-18T08:04:25;19.70;;;7.20;;
20697;SDS011;10508;50.956;4.640;2022-12-18T08:06:51;19.57;;;8.80;;
20697;SDS011;10508;50.956;4.640;2022-12-18T08:09:17;26.58;;;8.15;;
20697;SDS011;10508;50.956;4.640;2022-12-18T08:11:43;31.45;;;8.90;;
20697;SDS011;10508;50.956;4.640;2022-12-18T08:14:10;27.87;;;8.53;;
20697;SDS011;10508;50.956;4.640;2022-12-18T08:16:35;19.13;;;6.80;;
20697;SDS011;10508;50.956;4.640;2022-12-18T08:19:01;22.67;;;6.83;;
20697;SDS011;10508;50.956;4.640;2022-12-18T08:21:28;19.73;;;6.77;;
20697;SDS011;10508;50.956;4.640;2022-12-18T08:23:56;26.60;;;8.10;;
20697;SDS011;10508;50.956;4.640;2022-12-18T08:26:23;19.90;;;7.35;;
20697;SDS011;10508;50.956;4.640;2022-12-18T08:28:50;20.80;;;7.50;;
20697;SDS011;10508;50.956;4.640;2022-12-18T08:31:17;19.35;;;7.32;;
20697;SDS011;10508;50.956;4.640;2022-12-18T08:33:43;20.33;;;6.50;;
20697;SDS011;10508;50.956;4.640;2022-12-18T08:36:09;13.88;;;6.40;;
20697;SDS011;10508;50.956;4.640;2022-12-18T08:38:35;19.10;;;5.63;;
20697;SDS011;10508;50.956;4.640;2022-12-18T08:41:04;15.48;;;5.28;;
20697;SDS011;10508;50.956;4.640;2022-12-18T08:43:32;14.15;;;5.00;;
20697;SDS011;10508;50.956;4.640;2022-12-18T08:46:16;19.67;;;6.07;;
20697;SDS011;10508;50.956;4.640;2022-12-18T08:48:43;17.75;;;6.85;;
20697;SDS011;10508;50.956;4.640;2022-12-18T08:51:09;14.25;;;6.13;;
20697;SDS011;10508;50.956;4.640;2022-12-18T08:53:35;15.15;;;5.75;;
20697;SDS011;10508;50.956;4.640;2022-12-18T08:56:01;9.95;;;4.25;;
20697;SDS011;10508;50.956;4.640;2022-12-18T08:58:28;13.70;;;5.45;;
20697;SDS011;10508;50.956;4.640;2022-12-18T09:00:54;16.80;;;5.35;;
20697;SDS011;10508;50.956;4.640;2022-12-18T09:03:25;17.83;;;6.15;;
20697;SDS011;10508;50.956;4.640;2022-12-18T09:05:51;24.15;;;6.32;;
20697;SDS011;10508;50.956;4.640;2022-12-18T09:08:17;27.45;;;5.82;;
20697;SDS011;10508;50.956;4.640;2022-12-18T09:10:45;19.83;;;5.93;;
20697;SDS011;10508;50.956;4.640;2022-12-18T09:13:12;18.17;;;6.40;;
20697;SDS011;10508;50.956;4.640;2022-12-18T09:15:42;16.00;;;5.70;;
20697;SDS011;10508;50.956;4.640;2022-12-18T09:18:10;21.90;;;6.20;;
20697;SDS011;10508;50.956;4.640;2022-12-18T09:20:36;19.77;;;6.43;;
20697;SDS011;10508;50.956;4.640;2022-12-18T09:23:03;15.57;;;6.15;;
20697;SDS011;10508;50.956;4.640;2022-12-18T09:25:29;14.27;;;5.40;;
20697;SDS011;10508;50.956;4.640;2022-12-18T09:28:14;15.60;;;5.80;;
20697;SDS011;10508;50.956;4.640;2022-12-18T09:30:44;15.98;;;5.95;;
20697;SDS011;10508;50.956;4.640;2022-12-18T09:33:12;16.40;;;5.50;;
20697;SDS011;10508;50.956;4.640;2022-12-18T09:35:39;19.90;;;6.68;;
20697;SDS011;10508;50.956;4.640;2022-12-18T09:38:07;16.85;;;6.25;;
20697;SDS011;10508;50.956;4.640;2022-12-18T09:40:36;18.00;;;6.38;;
20697;SDS011;10508;50.956;4.640;2022-12-18T09:43:09;21.48;;;6.25;;
20697;SDS011;10508;50.956;4.640;2022-12-18T09:45:42;19.27;;;7.30;;
20697;SDS011;10508;50.956;4.640;2022-12-18T09:48:16;16.65;;;6.43;;
20697;SDS011;10508;50.956;4.640;2022-12-18T09:50:48;18.10;;;7.20;;
20697;SDS011;10508;50.956;4.640;2022-12-18T09:53:18;27.77;;;7.20;;
20697;SDS011;10508;50.956;4.640;2022-12-18T09:55:47;20.17;;;6.90;;
20697;SDS011;10508;50.956;4.640;2022-12-18T09:58:17;18.27;;;7.35;;
20697;SDS011;10508;50.956;4.640;2022-12-18T10:00:56;14.15;;;6.80;;
20697;SDS011;10508;50.956;4.640;2022-12-18T10:03:22;22.67;;;6.85;;
20697;SDS011;10508;50.956;4.640;2022-12-18T10:08:41;14.60;;;6.32;;
20697;SDS011;10508;50.956;4.640;2022-12-18T10:11:48;21.33;;;7.00;;
20697;SDS011;10508;50.956;4.640;2022-12-18T10:14:23;19.40;;;6.45;;
20697;SDS011;10508;50.956;4.640;2022-12-18T10:19:39;14.57;;;6.22;;
20697;SDS011;10508;50.956;4.640;2022-12-18T10:27:46;18.20;;;6.43;;
20697;SDS011;10508;50.956;4.640;2022-12-18T10:30:13;21.25;;;6.97;;
20697;SDS011;10508;50.956;4.640;2022-12-18T10:32:40;22.27;;;7.40;;
20697;SDS011;10508;50.956;4.640;2022-12-18T10:35:22;17.15;;;6.55;;
20697;SDS011;10508;50.956;4.640;2022-12-18T10:45:58;10.88;;;5.47;;
20697;SDS011;10508;50.956;4.640;2022-12-18T10:48:33;15.82;;;6.20;;
20697;SDS011;10508;50.956;4.640;2022-12-18T10:51:16;15.18;;;5.97;;
20697;SDS011;10508;50.956;4.640;2022-12-18T10:54:02;14.65;;;5.93;;
20697;SDS011;10508;50.956;4.640;2022-12-18T10:56:30;15.02;;;6.18;;
20697;SDS011;10508;50.956;4.640;2022-12-18T10:58:59;13.75;;;5.47;;
20697;SDS011;10508;50.956;4.640;2022-12-18T11:01:25;13.45;;;5.72;;
20697;SDS011;10508;50.956;4.640;2022-12-18T11:06:21;16.77;;;6.05;;
20697;SDS011;10508;50.956;4.640;2022-12-18T11:09:05;10.23;;;4.90;;
20697;SDS011;10508;50.956;4.640;2022-12-18T11:12:17;15.68;;;4.95;;
20697;SDS011;10508;50.956;4.640;2022-12-18T11:14:52;15.10;;;5.32;;
20697;SDS011;10508;50.956;4.640;2022-12-18T11:17:20;11.07;;;4.60;;
20697;SDS011;10508;50.956;4.640;2022-12-18T11:19:58;14.98;;;5.35;;
20697;SDS011;10508;50.956;4.640;2022-12-18T11:25:03;13.00;;;5.32;;
20697;SDS011;10508;50.956;4.640;2022-12-18T11:27:36;10.85;;;5.47;;
20697;SDS011;10508;50.956;4.640;2022-12-18T11:30:08;11.23;;;5.20;;
20697;SDS011;10508;50.956;4.640;2022-12-18T11:32:38;14.43;;;5.15;;
20697;SDS011;10508;50.956;4.640;2022-12-18T11:35:25;17.80;;;5.68;;
20697;SDS011;10508;50.956;4.640;2022-12-18T11:37:57;11.75;;;4.68;;
20697;SDS011;10508;50.956;4.640;2022-12-18T11:40:36;12.27;;;5.60;;
20697;SDS011;10508;50.956;4.640;2022-12-18T11:45:59;9.00;;;4.90;;
20697;SDS011;10508;50.956;4.640;2022-12-18T11:48:45;13.48;;;6.15;;
20697;SDS011;10508;50.956;4.640;2022-12-18T11:51:26;18.00;;;6.53;;
20697;SDS011;10508;50.956;4.640;2022-12-18T11:53:57;17.52;;;7.43;;
20697;SDS011;10508;50.956;4.640;2022-12-18T12:01:53;19.55;;;7.05;;
20697;SDS011;10508;50.956;4.640;2022-12-18T12:04:33;14.27;;;5.90;;
20697;SDS011;10508;50.956;4.640;2022-12-18T12:10:18;15.07;;;6.90;;
20697;SDS011;10508;50.956;4.640;2022-12-18T12:18:44;20.52;;;7.22;;
20697;SDS011;10508;50.956;4.640;2022-12-18T12:27:03;15.23;;;6.18;;
20697;SDS011;10508;50.956;4.640;2022-12-18T12:29:43;18.25;;;6.47;;
20697;SDS011;10508;50.956;4.640;2022-12-18T12:37:44;17.13;;;7.15;;
20697;SDS011;10508;50.956;4.640;2022-12-18T12:40:31;13.27;;;6.57;;
20697;SDS011;10508;50.956;4.640;2022-12-18T12:43:49;15.27;;;6.50;;
20697;SDS011;10508;50.956;4.640;2022-12-18T12:46:06;20.65;;;7.68;;
20697;SDS011;10508;50.956;4.640;2022-12-18T12:48:42;16.00;;;7.45;;
20697;SDS011;10508;50.956;4.640;2022-12-18T12:51:16;17.00;;;8.25;;
20697;SDS011;10508;50.956;4.640;2022-12-18T12:54:02;22.77;;;7.85;;
20697;SDS011;10508;50.956;4.640;2022-12-18T13:02:06;21.38;;;8.65;;
20697;SDS011;10508;50.956;4.640;2022-12-18T13:04:43;18.65;;;7.75;;
20697;SDS011;10508;50.956;4.640;2022-12-18T13:07:15;17.98;;;8.07;;
20697;SDS011;10508;50.956;4.640;2022-12-18T13:10:13;13.32;;;6.93;;
20697;SDS011;10508;50.956;4.640;2022-12-18T13:13:09;25.70;;;7.82;;
20697;SDS011;10508;50.956;4.640;2022-12-18T13:20:34;20.77;;;8.50;;
20697;SDS011;10508;50.956;4.640;2022-12-18T13:25:50;21.77;;;7.88;;
20697;SDS011;10508;50.956;4.640;2022-12-18T13:31:03;20.83;;;8.13;;
20697;SDS011;10508;50.956;4.640;2022-12-18T13:38:40;21.95;;;8.32;;
20697;SDS011;10508;50.956;4.640;2022-12-18T13:43:42;21.63;;;7.53;;
20697;SDS011;10508;50.956;4.640;2022-12-18T13:46:23;29.85;;;9.05;;
20697;SDS011;10508;50.956;4.640;2022-12-18T13:51:24;19.65;;;8.45;;
20697;SDS011;10508;50.956;4.640;2022-12-18T13:53:52;20.55;;;8.07;;
20697;SDS011;10508;50.956;4.640;2022-12-18T13:56:24;18.02;;;7.82;;
20697;SDS011;10508;50.956;4.640;2022-12-18T13:59:15;19.98;;;8.10;;
20697;SDS011;10508;50.956;4.640;2022-12-18T14:01:45;22.17;;;7.97;;
20697;SDS011;10508;50.956;4.640;2022-12-18T14:04:29;19.10;;;8.35;;
20697;SDS011;10508;50.956;4.640;2022-12-18T14:06:56;24.95;;;8.80;;
20697;SDS011;10508;50.956;4.640;2022-12-18T14:09:28;26.33;;;10.38;;
20697;SDS011;10508;50.956;4.640;2022-12-18T14:11:55;21.17;;;8.60;;
20697;SDS011;10508;50.956;4.640;2022-12-18T14:14:44;25.63;;;10.80;;
20697;SDS011;10508;50.956;4.640;2022-12-18T14:17:12;26.75;;;11.20;;
20697;SDS011;10508;50.956;4.640;2022-12-18T14:19:46;26.63;;;9.95;;
20697;SDS011;10508;50.956;4.640;2022-12-18T14:22:16;23.58;;;8.80;;
20697;SDS011;10508;50.956;4.640;2022-12-18T14:24:47;24.55;;;9.13;;
20697;SDS011;10508;50.956;4.640;2022-12-18T14:27:29;23.02;;;8.35;;
20697;SDS011;10508;50.956;4.640;2022-12-18T14:29:55;24.35;;;9.90;;
20697;SDS011;10508;50.956;4.640;2022-12-18T14:32:20;24.95;;;9.05;;
20697;SDS011;10508;50.956;4.640;2022-12-18T14:34:51;18.42;;;8.05;;
20697;SDS011;10508;50.956;4.640;2022-12-18T14:37:25;29.85;;;9.38;;
20697;SDS011;10508;50.956;4.640;2022-12-18T14:40:01;21.80;;;9.02;;
20697;SDS011;10508;50.956;4.640;2022-12-18T14:42:29;21.60;;;8.13;;
20697;SDS011;10508;50.956;4.640;2022-12-18T14:47:59;23.30;;;9.05;;
20697;SDS011;10508;50.956;4.640;2022-12-18T14:50:25;23.85;;;9.57;;
20697;SDS011;10508;50.956;4.640;2022-12-18T14:52:51;26.25;;;8.75;;
20697;SDS011;10508;50.956;4.640;2022-12-18T14:55:17;25.08;;;9.68;;
20697;SDS011;10508;50.956;4.640;2022-12-18T14:57:45;23.00;;;9.82;;
20697;SDS011;10508;50.956;4.640;2022-12-18T15:00:15;25.98;;;8.95;;
20697;SDS011;10508;50.956;4.640;2022-12-18T15:02:48;27.65;;;9.93;;
20697;SDS011;10508;50.956;4.640;2022-12-18T15:05:18;26.52;;;9.90;;
20697;SDS011;10508;50.956;4.640;2022-12-18T15:07:49;19.45;;;8.43;;
20697;SDS011;10508;50.956;4.640;2022-12-18T15:10:18;28.27;;;9.70;;
20697;SDS011;10508;50.956;4.640;2022-12-18T15:18:01;23.48;;;9.45;;
20697;SDS011;10508;50.956;4.640;2022-12-18T15:20:27;21.13;;;7.80;;
20697;SDS011;10508;50.956;4.640;2022-12-18T15:22:56;26.67;;;9.65;;
20697;SDS011;10508;50.956;4.640;2022-12-18T15:25:27;23.70;;;7.90;;
20697;SDS011;10508;50.956;4.640;2022-12-18T15:27:59;21.30;;;8.27;;
20697;SDS011;10508;50.956;4.640;2022-12-18T15:30:24;23.90;;;8.57;;
20697;SDS011;10508;50.956;4.640;2022-12-18T15:32:51;27.67;;;9.60;;
20697;SDS011;10508;50.956;4.640;2022-12-18T15:35:37;23.70;;;8.52;;
20697;SDS011;10508;50.956;4.640;2022-12-18T15:38:03;22.88;;;9.43;;
20697;SDS011;10508;50.956;4.640;2022-12-18T15:40:28;27.30;;;9.65;;
20697;SDS011;10508;50.956;4.640;2022-12-18T15:42:54;26.08;;;9.32;;
20697;SDS011;10508;50.956;4.640;2022-12-18T15:45:39;26.98;;;9.68;;
20697;SDS011;10508;50.956;4.640;2022-12-18T15:48:17;21.70;;;8.80;;
20697;SDS011;10508;50.956;4.640;2022-12-18T15:50:48;27.88;;;9.48;;
20697;SDS011;10508;50.956;4.640;2022-12-18T15:53:18;22.63;;;8.82;;
20697;SDS011;10508;50.956;4.640;2022-12-18T15:55:44;27.08;;;9.80;;
20697;SDS011;10508;50.956;4.640;2022-12-18T15:58:28;20.48;;;8.57;;
20697;SDS011;10508;50.956;4.640;2022-12-18T16:00:54;21.98;;;7.85;;
20697;SDS011;10508;50.956;4.640;2022-12-18T16:03:23;22.85;;;8.75;;
20697;SDS011;10508;50.956;4.640;2022-12-18T16:05:48;25.20;;;9.15;;
20697;SDS011;10508;50.956;4.640;2022-12-18T16:08:14;24.50;;;8.63;;
20697;SDS011;10508;50.956;4.640;2022-12-18T16:10:40;35.35;;;9.82;;
20697;SDS011;10508;50.956;4.640;2022-12-18T16:13:06;23.00;;;9.05;;
20697;SDS011;10508;50.956;4.640;2022-12-18T16:15:34;25.13;;;9.43;;
20697;SDS011;10508;50.956;4.640;2022-12-18T16:18:00;28.75;;;11.52;;
20697;SDS011;10508;50.956;4.640;2022-12-18T16:20:26;22.80;;;9.45;;
20697;SDS011;10508;50.956;4.640;2022-12-18T16:22:51;22.35;;;9.18;;
20697;SDS011;10508;50.956;4.640;2022-12-18T16:25:21;22.17;;;9.10;;
20697;SDS011;10508;50.956;4.640;2022-12-18T16:27:49;26.90;;;9.63;;
20697;SDS011;10508;50.956;4.640;2022-12-18T16:30:16;23.63;;;9.68;;
20697;SDS011;10508;50.956;4.640;2022-12-18T16:32:44;30.33;;;10.43;;
20697;SDS011;10508;50.956;4.640;2022-12-18T16:35:11;24.30;;;9.55;;
20697;SDS011;10508;50.956;4.640;2022-12-18T16:37:38;24.85;;;9.07;;
20697;SDS011;10508;50.956;4.640;2022-12-18T16:40:05;27.42;;;9.30;;
20697;SDS011;10508;50.956;4.640;2022-12-18T16:42:34;28.13;;;9.32;;
20697;SDS011;10508;50.956;4.640;2022-12-18T16:45:00;28.25;;;9.45;;
20697;SDS011;10508;50.956;4.640;2022-12-18T16:47:26;30.70;;;8.98;;